Amity, Maine
Current Conditions -  °F | °C
As of 6:53 PM on Friday 28 Nov 2014 (Local Time) from KHUL Reporting Station
Light Snow Light Snow  
Wind Chill: 18°   Ceiling: 4600
Heat Index: 18°   Visibility: 3mi
Dew Point: 13°   Wind: 0mph
Humidity: 81%   Direction: NA
Pressure: 30.03"   Gusts: NA
Location:  45.8952°N, 67.8479°W
Report Text: KHUL 282353Z AUTO 00000KT 3SM -SN OVC046 M08/M11 A3003 RMK AO2 SNB28 SLP181 P0000 60000 T10781106 11067 21083 51013
Loading
Personal Weather Stations






























Interactive Weather Map New forecast layout! Learn more

10-Day Weather Forecast

Advertisements
Track Severe Weather on mobile